createdAt,value
2018-03-11T17:34:24.550Z,6.40
2018-03-11T17:35:24.470Z,11.00
2018-03-11T17:37:17.400Z,9.90
2018-03-11T17:38:17.291Z,9.40
2018-03-11T17:40:10.287Z,8.00
2018-03-11T17:41:10.162Z,9.60
2018-03-11T17:43:03.104Z,9.00
2018-03-11T17:44:03.008Z,8.10
2018-03-11T17:45:55.974Z,7.20
2018-03-11T17:46:55.863Z,6.40
2018-03-11T17:48:48.868Z,6.70
2018-03-11T17:49:48.716Z,6.20
2018-03-11T17:51:41.661Z,8.00
2018-03-11T17:52:41.569Z,5.90
2018-03-11T17:54:34.518Z,5.50
2018-03-11T17:55:34.424Z,5.10
2018-03-11T17:57:27.383Z,5.20
2018-03-11T17:58:27.275Z,7.00
2018-03-11T18:00:20.241Z,5.50
2018-03-11T18:01:20.240Z,5.80
2018-03-11T18:03:13.088Z,5.70
2018-03-11T18:04:12.996Z,7.60
2018-03-11T18:06:05.942Z,5.80
2018-03-11T18:07:05.865Z,6.70
2018-03-11T18:08:58.787Z,7.20
2018-03-11T18:09:58.698Z,6.70
2018-03-11T18:11:51.647Z,5.00
2018-03-11T18:12:51.551Z,7.00
2018-03-11T18:14:44.492Z,5.90
2018-03-11T18:15:44.405Z,6.00
2018-03-11T18:17:37.346Z,6.50
2018-03-11T18:18:37.258Z,5.90
2018-03-11T18:20:30.205Z,5.60
2018-03-11T18:21:30.112Z,8.50
2018-03-11T18:23:22.994Z,7.50
2018-03-11T18:24:22.960Z,6.30
2018-03-11T18:26:15.886Z,8.30
2018-03-11T18:27:15.893Z,6.00
2018-03-11T18:29:08.782Z,6.20
2018-03-11T18:30:08.673Z,6.30
2018-03-11T18:32:01.637Z,6.30
2018-03-11T18:33:01.540Z,6.50
2018-03-11T18:34:54.465Z,7.60
2018-03-11T18:35:54.380Z,6.90
2018-03-11T18:37:47.370Z,7.10
2018-03-11T18:38:47.228Z,5.20
2018-03-11T18:40:40.171Z,7.80
2018-03-11T18:41:40.079Z,10.20
2018-03-11T18:43:33.079Z,6.30
2018-03-11T18:44:32.930Z,7.80
2018-03-11T18:46:26.269Z,7.30
2018-03-11T18:47:25.815Z,7.70
2018-03-11T18:49:19.752Z,8.10
2018-03-11T18:50:18.723Z,7.00
2018-03-11T18:52:11.661Z,6.70
2018-03-11T18:53:11.537Z,8.50
2018-03-11T18:55:04.561Z,6.20
2018-03-11T18:56:04.362Z,5.90
2018-03-11T18:57:57.854Z,5.90
2018-03-11T18:58:57.810Z,8.20
2018-03-11T19:00:50.844Z,6.00
2018-03-11T19:01:50.663Z,7.00
2018-03-11T19:03:43.678Z,10.40
2018-03-11T19:04:43.514Z,7.90
2018-03-11T19:06:36.460Z,12.00
2018-03-11T19:07:36.367Z,12.70
2018-03-11T19:09:29.338Z,10.40
2018-03-11T19:10:29.224Z,12.30
2018-03-11T19:12:22.166Z,11.40
2018-03-11T19:13:22.071Z,10.40
2018-03-11T19:15:15.033Z,10.90
2018-03-11T19:16:14.928Z,11.60
2018-03-11T19:18:07.891Z,12.00
2018-03-11T19:19:07.780Z,12.40
2018-03-11T19:21:00.931Z,12.40
2018-03-11T19:22:00.828Z,254.70
2018-03-11T19:23:53.818Z,381.30
2018-03-11T19:24:53.707Z,102.50
2018-03-11T19:26:46.636Z,34.20
2018-03-11T19:27:46.543Z,25.90
2018-03-11T19:29:39.481Z,17.40
2018-03-11T19:30:39.398Z,19.80
2018-03-11T19:32:32.344Z,14.80
2018-03-11T19:33:32.252Z,13.10
2018-03-11T19:35:25.204Z,12.70
2018-03-11T19:36:25.100Z,13.60
2018-03-11T19:38:18.049Z,12.90
2018-03-11T19:39:17.949Z,15.50
2018-03-11T19:41:11.001Z,15.30
2018-03-11T19:42:10.904Z,13.90
2018-03-11T19:44:03.855Z,16.30
2018-03-11T19:45:03.761Z,13.60
2018-03-11T19:46:56.705Z,14.00
2018-03-11T19:47:56.631Z,13.50
2018-03-11T19:49:49.569Z,12.90
2018-03-11T19:50:49.466Z,13.50
2018-03-11T19:52:42.429Z,14.00
2018-03-11T19:53:42.313Z,11.40
2018-03-11T19:55:35.292Z,11.10
2018-03-11T19:56:35.178Z,13.00
2018-03-11T19:58:28.122Z,12.10
2018-03-11T19:59:28.058Z,11.90
2018-03-11T20:01:20.981Z,11.60
2018-03-11T20:02:20.904Z,11.20
2018-03-11T20:04:13.836Z,9.80
2018-03-11T20:05:13.738Z,10.20
2018-03-11T20:07:06.711Z,10.50
2018-03-11T20:08:06.597Z,8.80
2018-03-11T20:09:59.523Z,9.20
2018-03-11T20:10:59.440Z,10.60
2018-03-11T20:12:52.375Z,10.30
2018-03-11T20:13:52.287Z,9.20
2018-03-11T20:15:45.254Z,8.20
2018-03-11T20:16:45.146Z,8.70
2018-03-11T20:18:38.112Z,8.50
2018-03-11T20:19:38.000Z,8.40
2018-03-11T20:21:30.934Z,7.90
2018-03-11T20:22:30.852Z,7.60
2018-03-11T20:24:23.740Z,8.80
2018-03-11T20:25:23.715Z,7.70
2018-03-11T20:27:16.639Z,7.90
2018-03-11T20:28:16.546Z,7.70
2018-03-11T20:30:09.504Z,9.30
2018-03-11T20:31:09.406Z,10.20
2018-03-11T20:33:02.358Z,9.70
2018-03-11T20:34:02.260Z,8.70
2018-03-11T20:35:55.206Z,8.90
2018-03-11T20:36:55.110Z,7.70
2018-03-11T20:38:48.059Z,8.60
2018-03-11T20:39:47.966Z,7.10
2018-03-11T20:41:40.949Z,6.50
2018-03-11T20:42:40.815Z,7.60
2018-03-11T20:44:33.869Z,6.80
2018-03-11T20:45:33.826Z,6.40
2018-03-11T20:47:26.716Z,6.80
2018-03-11T20:48:26.626Z,9.00
2018-03-11T20:50:19.571Z,7.40
2018-03-11T20:51:19.473Z,8.00
2018-03-11T20:53:12.418Z,8.40
2018-03-11T20:54:12.332Z,6.90
2018-03-11T20:56:05.281Z,6.00
2018-03-11T20:57:05.179Z,6.80
2018-03-11T20:58:58.128Z,9.00
2018-03-11T20:59:58.035Z,8.00
2018-03-11T21:01:50.988Z,12.60
2018-03-11T21:02:50.892Z,11.10
2018-03-11T21:03:50.971Z,13.80
2018-03-11T21:04:50.849Z,8.90
2018-03-11T21:05:50.881Z,10.60
2018-03-11T21:06:50.798Z,9.40
2018-03-11T21:07:50.798Z,9.80
2018-03-11T21:08:50.761Z,9.70
2018-03-11T21:09:50.806Z,8.90
2018-03-11T21:10:50.710Z,8.10
2018-03-11T21:11:50.728Z,7.50
2018-03-11T21:12:50.666Z,6.80
2018-03-11T21:13:50.737Z,7.20
2018-03-11T21:14:50.618Z,6.50
2018-03-11T21:15:50.640Z,7.40
2018-03-11T21:16:50.571Z,7.40
2018-03-11T21:17:50.653Z,8.40
2018-03-11T21:18:50.527Z,7.20
2018-03-11T21:19:50.577Z,7.60
2018-03-11T21:20:50.493Z,8.70
2018-03-11T21:21:50.486Z,7.60
2018-03-11T21:22:50.437Z,7.90
2018-03-11T21:23:50.498Z,7.10
2018-03-11T21:24:50.393Z,6.60
2018-03-11T21:25:50.416Z,7.70
2018-03-11T21:26:50.354Z,9.10
2018-03-11T21:27:50.426Z,7.70
2018-03-11T21:28:50.302Z,7.50
2018-03-11T21:29:50.336Z,9.30
2018-03-11T21:30:50.253Z,10.10
2018-03-11T21:31:50.345Z,8.90
2018-03-11T21:32:50.213Z,8.10
2018-03-11T21:33:50.260Z,7.00
2018-03-11T21:34:50.165Z,8.20
2018-03-11T21:35:50.172Z,7.70
2018-03-11T21:36:50.118Z,8.00
2018-03-11T21:37:50.185Z,9.20
2018-03-11T21:38:50.072Z,8.10
2018-03-11T21:39:50.090Z,9.30
2018-03-11T21:40:50.028Z,9.60
2018-03-11T21:41:50.110Z,8.40
2018-03-11T21:42:49.980Z,8.60
2018-03-11T21:43:50.023Z,9.10
2018-03-11T21:44:49.935Z,8.10
2018-03-11T21:45:49.934Z,7.20
2018-03-11T21:46:49.895Z,8.20
2018-03-11T21:47:49.947Z,8.30
2018-03-11T21:48:49.851Z,8.70
2018-03-11T21:49:49.859Z,9.40
2018-03-11T21:50:49.791Z,8.70
2018-03-11T21:51:49.872Z,8.40
2018-03-11T21:52:49.751Z,10.90
2018-03-11T21:53:49.784Z,10.60
2018-03-11T21:54:49.703Z,10.10
2018-03-11T21:55:49.694Z,10.00
2018-03-11T21:56:49.660Z,10.30
2018-03-11T21:57:49.709Z,9.20
2018-03-11T21:58:49.612Z,9.30
2018-03-11T21:59:49.620Z,11.10
2018-03-11T22:00:49.570Z,11.10
2018-03-11T22:01:49.633Z,11.80
2018-03-11T22:02:49.520Z,12.00
2018-03-11T22:03:49.548Z,12.80
2018-03-11T22:04:49.476Z,15.10
2018-03-11T22:05:49.561Z,13.30
2018-03-11T22:06:49.428Z,13.80
2018-03-11T22:07:49.491Z,11.80
2018-03-11T22:08:49.385Z,11.20
2018-03-11T22:09:49.382Z,10.80
2018-03-11T22:10:49.375Z,9.80
2018-03-11T22:11:49.396Z,9.70
2018-03-11T22:12:49.293Z,11.20
2018-03-11T22:13:49.307Z,9.60
2018-03-11T22:14:49.235Z,9.40
2018-03-11T22:15:49.322Z,9.30
2018-03-11T22:16:49.202Z,9.50
2018-03-11T22:17:49.234Z,8.70
2018-03-11T22:18:49.150Z,7.40
2018-03-11T22:19:49.145Z,9.20
2018-03-11T22:20:49.104Z,8.50
2018-03-11T22:21:49.161Z,8.60
2018-03-11T22:22:49.058Z,8.90
2018-03-11T22:23:49.071Z,8.10
2018-03-11T22:24:49.013Z,8.30
2018-03-11T22:25:49.086Z,8.20
2018-03-11T22:26:48.965Z,8.80
2018-03-11T22:27:48.997Z,8.20
2018-03-11T22:28:48.918Z,8.80
2018-03-11T22:29:48.910Z,8.80
2018-03-11T22:30:48.873Z,8.30
2018-03-11T22:31:48.919Z,8.10
2018-03-11T22:32:48.827Z,7.60
2018-03-11T22:33:48.833Z,8.20
2018-03-11T22:34:48.775Z,7.80
2018-03-11T22:35:48.851Z,8.60
2018-03-11T22:36:48.729Z,7.60
2018-03-11T22:37:48.759Z,8.60
2018-03-11T22:38:48.695Z,8.40
2018-03-11T22:39:48.674Z,8.90
2018-03-11T22:40:48.637Z,7.60
2018-03-11T22:41:48.684Z,7.80
2018-03-11T22:45:51.912Z,7.90
2018-03-11T22:46:51.818Z,9.20
2018-03-11T22:48:44.765Z,7.80
2018-03-11T22:49:44.747Z,8.80
2018-03-11T22:51:37.619Z,9.90
2018-03-11T22:52:37.523Z,9.20
2018-03-11T22:54:30.470Z,8.30
2018-03-11T22:55:30.379Z,8.90
2018-03-11T22:57:23.330Z,8.30
2018-03-11T22:58:23.231Z,9.00
2018-03-11T23:00:16.187Z,9.30
2018-03-11T23:01:16.084Z,9.90
2018-03-11T23:03:09.032Z,10.60
2018-03-11T23:04:08.936Z,9.00
2018-03-11T23:06:01.889Z,9.40
2018-03-11T23:07:01.791Z,8.60
2018-03-11T23:08:54.737Z,8.90
2018-03-11T23:09:54.644Z,8.30
2018-03-11T23:11:47.587Z,9.40
2018-03-11T23:12:47.491Z,9.40
2018-03-11T23:14:40.438Z,9.90
2018-03-11T23:15:40.348Z,8.90
2018-03-11T23:17:33.294Z,10.20
2018-03-11T23:18:33.202Z,10.90
2018-03-11T23:20:27.171Z,10.00
2018-03-11T23:21:26.052Z,10.10
2018-03-11T23:23:18.999Z,8.90
2018-03-11T23:24:18.903Z,9.80
2018-03-11T23:26:11.853Z,10.60
2018-03-11T23:27:11.757Z,9.80
2018-03-11T23:29:04.705Z,10.00
2018-03-11T23:30:04.611Z,9.10
2018-03-11T23:31:57.557Z,8.60
2018-03-11T23:32:57.466Z,10.60
2018-03-11T23:34:50.416Z,10.00
2018-03-11T23:35:50.317Z,9.30
2018-03-11T23:36:50.397Z,11.60
2018-03-11T23:37:50.265Z,11.70
2018-03-11T23:38:50.311Z,9.40
2018-03-11T23:39:50.218Z,9.00
2018-03-11T23:40:50.223Z,9.90
2018-03-11T23:41:50.172Z,10.60
2018-03-11T23:42:50.235Z,10.90
2018-03-11T23:43:50.123Z,11.30
2018-03-11T23:44:50.147Z,11.20
2018-03-11T23:45:50.077Z,11.10
2018-03-11T23:46:50.166Z,10.40
2018-03-11T23:47:50.025Z,10.90
2018-03-11T23:48:51.098Z,12.20
2018-03-11T23:49:49.975Z,10.80
2018-03-11T23:50:49.985Z,9.90
2018-03-11T23:51:49.922Z,11.10
2018-03-11T23:52:50.001Z,9.60
2018-03-11T23:53:49.896Z,11.70
2018-03-11T23:54:49.910Z,10.20
2018-03-11T23:55:49.834Z,10.40
2018-03-11T23:56:49.823Z,10.90
2018-03-11T23:57:49.782Z,11.00
2018-03-11T23:58:49.838Z,9.50
2018-03-11T23:59:49.734Z,10.90
